sensor_id;sensor_type;location;lat;lon;timestamp;P1;durP1;ratioP1;P2;durP2;ratioP2
15151;SDS011;7676;50.900;6.234;2022-09-09T00:03:59;1.20;;;0.50;;
15151;SDS011;7676;50.900;6.234;2022-09-09T00:09:10;1.27;;;0.70;;
15151;SDS011;7676;50.900;6.234;2022-09-09T00:14:21;1.50;;;0.60;;
15151;SDS011;7676;50.900;6.234;2022-09-09T00:19:36;0.83;;;0.50;;
15151;SDS011;7676;50.900;6.234;2022-09-09T00:25:02;0.60;;;0.43;;
15151;SDS011;7676;50.900;6.234;2022-09-09T00:30:31;2.43;;;0.53;;
15151;SDS011;7676;50.900;6.234;2022-09-09T00:35:37;0.40;;;0.40;;
15151;SDS011;7676;50.900;6.234;2022-09-09T00:40:50;1.20;;;0.63;;
15151;SDS011;7676;50.900;6.234;2022-09-09T00:51:53;1.03;;;0.67;;
15151;SDS011;7676;50.900;6.234;2022-09-09T00:57:13;2.27;;;0.80;;
15151;SDS011;7676;50.900;6.234;2022-09-09T01:02:40;1.33;;;0.70;;
15151;SDS011;7676;50.900;6.234;2022-09-09T01:08:00;1.00;;;0.63;;
15151;SDS011;7676;50.900;6.234;2022-09-09T01:13:05;1.50;;;0.70;;
15151;SDS011;7676;50.900;6.234;2022-09-09T01:18:17;1.87;;;0.73;;
15151;SDS011;7676;50.900;6.234;2022-09-09T01:29:06;2.00;;;1.10;;
15151;SDS011;7676;50.900;6.234;2022-09-09T01:34:14;2.10;;;0.83;;
15151;SDS011;7676;50.900;6.234;2022-09-09T01:39:18;2.30;;;0.87;;
15151;SDS011;7676;50.900;6.234;2022-09-09T01:44:30;3.30;;;1.10;;
15151;SDS011;7676;50.900;6.234;2022-09-09T01:49:34;2.90;;;1.00;;
15151;SDS011;7676;50.900;6.234;2022-09-09T01:54:44;4.87;;;1.20;;
15151;SDS011;7676;50.900;6.234;2022-09-09T02:10:31;1.70;;;1.03;;
15151;SDS011;7676;50.900;6.234;2022-09-09T02:21:11;2.53;;;1.10;;
15151;SDS011;7676;50.900;6.234;2022-09-09T02:26:15;2.60;;;1.10;;
15151;SDS011;7676;50.900;6.234;2022-09-09T02:31:27;4.27;;;1.37;;
15151;SDS011;7676;50.900;6.234;2022-09-09T02:36:36;3.87;;;1.30;;
15151;SDS011;7676;50.900;6.234;2022-09-09T02:41:41;4.20;;;1.50;;
15151;SDS011;7676;50.900;6.234;2022-09-09T02:46:57;3.30;;;1.13;;
15151;SDS011;7676;50.900;6.234;2022-09-09T02:52:06;3.50;;;1.23;;
15151;SDS011;7676;50.900;6.234;2022-09-09T02:57:12;2.67;;;1.40;;
15151;SDS011;7676;50.900;6.234;2022-09-09T03:02:22;2.93;;;1.33;;
15151;SDS011;7676;50.900;6.234;2022-09-09T03:07:29;2.70;;;1.40;;
15151;SDS011;7676;50.900;6.234;2022-09-09T03:12:31;4.47;;;1.57;;
15151;SDS011;7676;50.900;6.234;2022-09-09T03:17:35;3.67;;;1.57;;
15151;SDS011;7676;50.900;6.234;2022-09-09T03:22:38;2.97;;;1.30;;
15151;SDS011;7676;50.900;6.234;2022-09-09T03:27:40;3.00;;;1.30;;
15151;SDS011;7676;50.900;6.234;2022-09-09T03:32:43;3.77;;;1.20;;
15151;SDS011;7676;50.900;6.234;2022-09-09T03:37:49;5.27;;;1.50;;
15151;SDS011;7676;50.900;6.234;2022-09-09T03:42:53;3.70;;;1.40;;
15151;SDS011;7676;50.900;6.234;2022-09-09T03:47:55;2.83;;;1.33;;
15151;SDS011;7676;50.900;6.234;2022-09-09T03:52:58;2.60;;;1.30;;
15151;SDS011;7676;50.900;6.234;2022-09-09T03:58:01;2.37;;;1.07;;
15151;SDS011;7676;50.900;6.234;2022-09-09T04:03:03;2.90;;;1.50;;
15151;SDS011;7676;50.900;6.234;2022-09-09T04:08:06;3.30;;;1.60;;
15151;SDS011;7676;50.900;6.234;2022-09-09T04:13:09;6.10;;;1.67;;
15151;SDS011;7676;50.900;6.234;2022-09-09T04:18:13;4.13;;;1.40;;
15151;SDS011;7676;50.900;6.234;2022-09-09T04:23:21;6.03;;;1.67;;
15151;SDS011;7676;50.900;6.234;2022-09-09T04:28:24;3.50;;;1.23;;
15151;SDS011;7676;50.900;6.234;2022-09-09T04:33:28;3.43;;;1.40;;
15151;SDS011;7676;50.900;6.234;2022-09-09T04:38:31;3.73;;;1.40;;
15151;SDS011;7676;50.900;6.234;2022-09-09T04:43:35;2.67;;;1.17;;
15151;SDS011;7676;50.900;6.234;2022-09-09T04:48:41;4.37;;;1.60;;
15151;SDS011;7676;50.900;6.234;2022-09-09T04:53:44;3.60;;;1.47;;
15151;SDS011;7676;50.900;6.234;2022-09-09T04:58:48;3.57;;;1.60;;
15151;SDS011;7676;50.900;6.234;2022-09-09T05:03:51;3.93;;;1.60;;
15151;SDS011;7676;50.900;6.234;2022-09-09T05:08:56;3.60;;;1.10;;
15151;SDS011;7676;50.900;6.234;2022-09-09T05:14:03;4.97;;;1.40;;
15151;SDS011;7676;50.900;6.234;2022-09-09T05:19:06;2.93;;;1.20;;
15151;SDS011;7676;50.900;6.234;2022-09-09T05:24:21;4.57;;;1.87;;
15151;SDS011;7676;50.900;6.234;2022-09-09T05:29:27;4.57;;;1.60;;
15151;SDS011;7676;50.900;6.234;2022-09-09T05:34:31;3.33;;;1.30;;
15151;SDS011;7676;50.900;6.234;2022-09-09T05:39:35;3.90;;;1.80;;
15151;SDS011;7676;50.900;6.234;2022-09-09T05:44:38;3.50;;;1.20;;
15151;SDS011;7676;50.900;6.234;2022-09-09T05:49:41;3.00;;;1.40;;
15151;SDS011;7676;50.900;6.234;2022-09-09T05:54:44;3.90;;;1.63;;
15151;SDS011;7676;50.900;6.234;2022-09-09T05:59:47;3.40;;;1.50;;
15151;SDS011;7676;50.900;6.234;2022-09-09T06:04:49;3.83;;;1.47;;
15151;SDS011;7676;50.900;6.234;2022-09-09T06:09:51;4.87;;;1.60;;
15151;SDS011;7676;50.900;6.234;2022-09-09T06:14:54;2.53;;;1.13;;
15151;SDS011;7676;50.900;6.234;2022-09-09T06:19:57;3.50;;;1.10;;
15151;SDS011;7676;50.900;6.234;2022-09-09T06:24:59;3.17;;;1.23;;
15151;SDS011;7676;50.900;6.234;2022-09-09T06:30:03;3.33;;;1.40;;
15151;SDS011;7676;50.900;6.234;2022-09-09T06:35:06;3.43;;;1.30;;
15151;SDS011;7676;50.900;6.234;2022-09-09T06:40:09;4.30;;;1.57;;
15151;SDS011;7676;50.900;6.234;2022-09-09T06:45:12;4.47;;;1.50;;
15151;SDS011;7676;50.900;6.234;2022-09-09T06:50:26;3.87;;;1.43;;
15151;SDS011;7676;50.900;6.234;2022-09-09T06:55:29;4.87;;;1.70;;
15151;SDS011;7676;50.900;6.234;2022-09-09T07:00:31;3.17;;;1.10;;
15151;SDS011;7676;50.900;6.234;2022-09-09T07:05:34;5.20;;;1.70;;
15151;SDS011;7676;50.900;6.234;2022-09-09T07:10:37;4.13;;;1.37;;
15151;SDS011;7676;50.900;6.234;2022-09-09T07:15:40;3.13;;;1.30;;
15151;SDS011;7676;50.900;6.234;2022-09-09T07:20:42;3.43;;;1.40;;
15151;SDS011;7676;50.900;6.234;2022-09-09T07:25:44;4.57;;;1.73;;
15151;SDS011;7676;50.900;6.234;2022-09-09T07:30:58;5.70;;;1.53;;
15151;SDS011;7676;50.900;6.234;2022-09-09T07:36:07;2.90;;;1.43;;
15151;SDS011;7676;50.900;6.234;2022-09-09T07:41:15;3.23;;;1.40;;
15151;SDS011;7676;50.900;6.234;2022-09-09T07:46:21;4.40;;;1.37;;
15151;SDS011;7676;50.900;6.234;2022-09-09T07:51:27;4.43;;;1.30;;
15151;SDS011;7676;50.900;6.234;2022-09-09T07:56:31;4.93;;;1.40;;
15151;SDS011;7676;50.900;6.234;2022-09-09T08:01:36;3.53;;;1.30;;
15151;SDS011;7676;50.900;6.234;2022-09-09T08:06:49;5.30;;;1.60;;
15151;SDS011;7676;50.900;6.234;2022-09-09T08:11:56;5.00;;;1.97;;
15151;SDS011;7676;50.900;6.234;2022-09-09T08:17:00;4.03;;;1.30;;
15151;SDS011;7676;50.900;6.234;2022-09-09T08:22:04;4.50;;;1.93;;
15151;SDS011;7676;50.900;6.234;2022-09-09T08:27:08;3.03;;;1.17;;
15151;SDS011;7676;50.900;6.234;2022-09-09T08:32:12;3.47;;;1.20;;
15151;SDS011;7676;50.900;6.234;2022-09-09T08:37:15;3.60;;;1.43;;
15151;SDS011;7676;50.900;6.234;2022-09-09T08:52:44;4.23;;;1.10;;
15151;SDS011;7676;50.900;6.234;2022-09-09T08:58:26;3.00;;;1.10;;
15151;SDS011;7676;50.900;6.234;2022-09-09T09:14:26;1.60;;;0.80;;
15151;SDS011;7676;50.900;6.234;2022-09-09T09:19:38;3.07;;;1.20;;
15151;SDS011;7676;50.900;6.234;2022-09-09T09:30:26;3.03;;;1.10;;
15151;SDS011;7676;50.900;6.234;2022-09-09T09:35:42;3.47;;;1.00;;
15151;SDS011;7676;50.900;6.234;2022-09-09T09:40:58;1.53;;;0.93;;
15151;SDS011;7676;50.900;6.234;2022-09-09T09:46:03;3.10;;;1.20;;
15151;SDS011;7676;50.900;6.234;2022-09-09T09:51:19;4.10;;;1.00;;
15151;SDS011;7676;50.900;6.234;2022-09-09T09:56:26;2.13;;;0.73;;
15151;SDS011;7676;50.900;6.234;2022-09-09T10:01:33;2.80;;;1.00;;
15151;SDS011;7676;50.900;6.234;2022-09-09T10:06:41;2.50;;;0.73;;
15151;SDS011;7676;50.900;6.234;2022-09-09T10:17:14;2.43;;;0.87;;
15151;SDS011;7676;50.900;6.234;2022-09-09T10:22:31;1.67;;;0.70;;
15151;SDS011;7676;50.900;6.234;2022-09-09T10:33:04;1.83;;;0.90;;
15151;SDS011;7676;50.900;6.234;2022-09-09T10:38:30;2.93;;;1.07;;
15151;SDS011;7676;50.900;6.234;2022-09-09T10:43:51;2.30;;;0.67;;
15151;SDS011;7676;50.900;6.234;2022-09-09T10:59:58;2.10;;;0.90;;
15151;SDS011;7676;50.900;6.234;2022-09-09T11:10:45;3.50;;;1.13;;
15151;SDS011;7676;50.900;6.234;2022-09-09T11:16:59;2.73;;;1.07;;
15151;SDS011;7676;50.900;6.234;2022-09-09T11:21:47;2.77;;;1.00;;
15151;SDS011;7676;50.900;6.234;2022-09-09T11:26:53;3.50;;;1.17;;
15151;SDS011;7676;50.900;6.234;2022-09-09T11:37:30;2.33;;;0.90;;
15151;SDS011;7676;50.900;6.234;2022-09-09T11:42:40;3.27;;;1.17;;
15151;SDS011;7676;50.900;6.234;2022-09-09T11:47:51;3.13;;;0.90;;
15151;SDS011;7676;50.900;6.234;2022-09-09T11:53:05;2.83;;;1.20;;
15151;SDS011;7676;50.900;6.234;2022-09-09T11:58:15;2.63;;;0.83;;
15151;SDS011;7676;50.900;6.234;2022-09-09T12:08:45;1.90;;;0.80;;
15151;SDS011;7676;50.900;6.234;2022-09-09T12:13:52;2.67;;;0.87;;
15151;SDS011;7676;50.900;6.234;2022-09-09T12:19:02;1.43;;;0.70;;
15151;SDS011;7676;50.900;6.234;2022-09-09T12:24:25;2.77;;;1.03;;
15151;SDS011;7676;50.900;6.234;2022-09-09T12:29:39;1.80;;;0.90;;
15151;SDS011;7676;50.900;6.234;2022-09-09T12:34:48;2.40;;;0.90;;
15151;SDS011;7676;50.900;6.234;2022-09-09T12:39:55;2.57;;;1.13;;
15151;SDS011;7676;50.900;6.234;2022-09-09T12:45:00;2.83;;;1.00;;
15151;SDS011;7676;50.900;6.234;2022-09-09T12:50:05;3.37;;;1.27;;
15151;SDS011;7676;50.900;6.234;2022-09-09T12:55:21;2.20;;;0.83;;
15151;SDS011;7676;50.900;6.234;2022-09-09T13:00:27;2.53;;;0.90;;
15151;SDS011;7676;50.900;6.234;2022-09-09T13:05:37;3.20;;;1.13;;
15151;SDS011;7676;50.900;6.234;2022-09-09T13:16:04;2.80;;;1.10;;
15151;SDS011;7676;50.900;6.234;2022-09-09T13:21:10;1.93;;;1.13;;
15151;SDS011;7676;50.900;6.234;2022-09-09T13:31:29;2.03;;;0.90;;
15151;SDS011;7676;50.900;6.234;2022-09-09T13:36:34;3.20;;;1.00;;
15151;SDS011;7676;50.900;6.234;2022-09-09T13:41:41;3.60;;;0.83;;
15151;SDS011;7676;50.900;6.234;2022-09-09T13:46:46;2.20;;;0.93;;
15151;SDS011;7676;50.900;6.234;2022-09-09T13:51:49;1.90;;;1.07;;
15151;SDS011;7676;50.900;6.234;2022-09-09T13:56:54;2.93;;;0.90;;
15151;SDS011;7676;50.900;6.234;2022-09-09T14:01:57;3.53;;;1.10;;
15151;SDS011;7676;50.900;6.234;2022-09-09T14:06:59;3.03;;;1.00;;
15151;SDS011;7676;50.900;6.234;2022-09-09T14:12:02;2.20;;;0.63;;
15151;SDS011;7676;50.900;6.234;2022-09-09T14:17:05;3.37;;;1.23;;
15151;SDS011;7676;50.900;6.234;2022-09-09T14:22:09;1.40;;;0.60;;
15151;SDS011;7676;50.900;6.234;2022-09-09T14:27:11;2.63;;;0.90;;
15151;SDS011;7676;50.900;6.234;2022-09-09T14:32:14;1.83;;;0.90;;
15151;SDS011;7676;50.900;6.234;2022-09-09T14:37:16;3.03;;;1.10;;
15151;SDS011;7676;50.900;6.234;2022-09-09T14:42:19;2.37;;;0.93;;
15151;SDS011;7676;50.900;6.234;2022-09-09T14:47:22;2.50;;;1.10;;
15151;SDS011;7676;50.900;6.234;2022-09-09T14:52:24;4.00;;;1.13;;
15151;SDS011;7676;50.900;6.234;2022-09-09T14:57:27;1.97;;;0.93;;
15151;SDS011;7676;50.900;6.234;2022-09-09T15:02:30;2.10;;;0.87;;
15151;SDS011;7676;50.900;6.234;2022-09-09T15:07:33;4.87;;;1.30;;
15151;SDS011;7676;50.900;6.234;2022-09-09T15:12:35;2.43;;;1.10;;
15151;SDS011;7676;50.900;6.234;2022-09-09T15:17:38;2.53;;;1.13;;
15151;SDS011;7676;50.900;6.234;2022-09-09T15:23:21;2.43;;;0.90;;
15151;SDS011;7676;50.900;6.234;2022-09-09T15:28:23;2.53;;;0.87;;
15151;SDS011;7676;50.900;6.234;2022-09-09T15:33:26;1.73;;;0.70;;
15151;SDS011;7676;50.900;6.234;2022-09-09T15:38:30;1.90;;;1.00;;
15151;SDS011;7676;50.900;6.234;2022-09-09T15:43:33;2.47;;;1.27;;
15151;SDS011;7676;50.900;6.234;2022-09-09T15:48:35;2.47;;;0.87;;
15151;SDS011;7676;50.900;6.234;2022-09-09T15:53:42;1.93;;;1.20;;
15151;SDS011;7676;50.900;6.234;2022-09-09T15:58:45;1.23;;;1.07;;
15151;SDS011;7676;50.900;6.234;2022-09-09T16:04:28;1.93;;;1.10;;
15151;SDS011;7676;50.900;6.234;2022-09-09T16:10:11;4.37;;;1.43;;
15151;SDS011;7676;50.900;6.234;2022-09-09T16:15:28;3.60;;;1.10;;
15151;SDS011;7676;50.900;6.234;2022-09-09T16:20:31;4.10;;;1.13;;
15151;SDS011;7676;50.900;6.234;2022-09-09T16:25:34;2.47;;;1.20;;
15151;SDS011;7676;50.900;6.234;2022-09-09T16:30:36;2.50;;;1.10;;
15151;SDS011;7676;50.900;6.234;2022-09-09T16:35:38;4.70;;;1.17;;
15151;SDS011;7676;50.900;6.234;2022-09-09T16:40:41;2.70;;;1.20;;
15151;SDS011;7676;50.900;6.234;2022-09-09T16:45:45;2.20;;;1.10;;
15151;SDS011;7676;50.900;6.234;2022-09-09T16:50:48;1.70;;;1.10;;
15151;SDS011;7676;50.900;6.234;2022-09-09T16:55:50;1.67;;;0.90;;
15151;SDS011;7676;50.900;6.234;2022-09-09T17:00:57;1.93;;;0.93;;
15151;SDS011;7676;50.900;6.234;2022-09-09T17:06:00;2.33;;;1.20;;
15151;SDS011;7676;50.900;6.234;2022-09-09T17:11:12;1.70;;;0.90;;
15151;SDS011;7676;50.900;6.234;2022-09-09T17:16:20;1.70;;;0.97;;
15151;SDS011;7676;50.900;6.234;2022-09-09T17:21:24;1.30;;;0.80;;
15151;SDS011;7676;50.900;6.234;2022-09-09T17:26:29;2.90;;;0.90;;
15151;SDS011;7676;50.900;6.234;2022-09-09T17:31:32;3.97;;;1.30;;
15151;SDS011;7676;50.900;6.234;2022-09-09T17:36:35;2.40;;;1.10;;
15151;SDS011;7676;50.900;6.234;2022-09-09T17:41:39;1.73;;;1.10;;
15151;SDS011;7676;50.900;6.234;2022-09-09T17:46:42;2.93;;;0.90;;
15151;SDS011;7676;50.900;6.234;2022-09-09T17:51:45;3.07;;;1.23;;
15151;SDS011;7676;50.900;6.234;2022-09-09T17:56:47;2.17;;;1.07;;
15151;SDS011;7676;50.900;6.234;2022-09-09T18:01:50;2.67;;;1.10;;
15151;SDS011;7676;50.900;6.234;2022-09-09T18:06:52;1.53;;;0.90;;
15151;SDS011;7676;50.900;6.234;2022-09-09T18:11:56;2.80;;;1.20;;
15151;SDS011;7676;50.900;6.234;2022-09-09T18:17:00;2.03;;;1.10;;
15151;SDS011;7676;50.900;6.234;2022-09-09T18:22:05;2.47;;;1.27;;
15151;SDS011;7676;50.900;6.234;2022-09-09T18:27:08;2.47;;;1.20;;
15151;SDS011;7676;50.900;6.234;2022-09-09T18:32:11;2.00;;;1.10;;
15151;SDS011;7676;50.900;6.234;2022-09-09T18:37:15;2.97;;;1.17;;
15151;SDS011;7676;50.900;6.234;2022-09-09T18:42:18;2.93;;;1.10;;
15151;SDS011;7676;50.900;6.234;2022-09-09T18:47:21;1.93;;;1.10;;
15151;SDS011;7676;50.900;6.234;2022-09-09T18:52:25;1.70;;;1.00;;
15151;SDS011;7676;50.900;6.234;2022-09-09T18:57:29;2.00;;;1.30;;
15151;SDS011;7676;50.900;6.234;2022-09-09T19:02:37;3.30;;;1.47;;
15151;SDS011;7676;50.900;6.234;2022-09-09T19:07:39;2.73;;;1.30;;
15151;SDS011;7676;50.900;6.234;2022-09-09T19:12:42;2.23;;;1.10;;
15151;SDS011;7676;50.900;6.234;2022-09-09T19:17:45;3.33;;;1.03;;
15151;SDS011;7676;50.900;6.234;2022-09-09T19:22:48;2.70;;;1.40;;
15151;SDS011;7676;50.900;6.234;2022-09-09T19:27:51;1.90;;;1.13;;
15151;SDS011;7676;50.900;6.234;2022-09-09T19:32:53;2.13;;;1.00;;
15151;SDS011;7676;50.900;6.234;2022-09-09T19:37:57;2.53;;;1.30;;
15151;SDS011;7676;50.900;6.234;2022-09-09T19:43:00;1.67;;;1.30;;
15151;SDS011;7676;50.900;6.234;2022-09-09T19:48:02;2.93;;;1.30;;
15151;SDS011;7676;50.900;6.234;2022-09-09T19:53:07;2.37;;;1.10;;
15151;SDS011;7676;50.900;6.234;2022-09-09T19:58:09;2.77;;;1.20;;
15151;SDS011;7676;50.900;6.234;2022-09-09T20:03:12;2.63;;;1.23;;
15151;SDS011;7676;50.900;6.234;2022-09-09T20:08:21;2.50;;;1.20;;
15151;SDS011;7676;50.900;6.234;2022-09-09T20:13:23;3.20;;;1.20;;
15151;SDS011;7676;50.900;6.234;2022-09-09T20:18:26;3.60;;;1.30;;
15151;SDS011;7676;50.900;6.234;2022-09-09T20:23:32;2.27;;;1.10;;
15151;SDS011;7676;50.900;6.234;2022-09-09T20:28:36;3.20;;;1.40;;
15151;SDS011;7676;50.900;6.234;2022-09-09T20:33:41;2.97;;;1.20;;
15151;SDS011;7676;50.900;6.234;2022-09-09T20:38:54;2.93;;;1.43;;
15151;SDS011;7676;50.900;6.234;2022-09-09T20:44:11;3.07;;;1.37;;
15151;SDS011;7676;50.900;6.234;2022-09-09T20:49:21;3.47;;;1.50;;
15151;SDS011;7676;50.900;6.234;2022-09-09T20:54:27;2.07;;;1.00;;
15151;SDS011;7676;50.900;6.234;2022-09-09T20:59:33;3.20;;;1.30;;
15151;SDS011;7676;50.900;6.234;2022-09-09T21:04:35;3.30;;;1.23;;
15151;SDS011;7676;50.900;6.234;2022-09-09T21:09:42;2.93;;;1.37;;
15151;SDS011;7676;50.900;6.234;2022-09-09T21:14:44;3.43;;;1.33;;
15151;SDS011;7676;50.900;6.234;2022-09-09T21:19:46;3.67;;;1.40;;
15151;SDS011;7676;50.900;6.234;2022-09-09T21:24:49;2.67;;;1.37;;
15151;SDS011;7676;50.900;6.234;2022-09-09T21:29:52;2.27;;;1.30;;
15151;SDS011;7676;50.900;6.234;2022-09-09T21:34:54;2.77;;;1.03;;
15151;SDS011;7676;50.900;6.234;2022-09-09T21:39:57;3.97;;;1.40;;
15151;SDS011;7676;50.900;6.234;2022-09-09T21:45:00;2.40;;;1.40;;
15151;SDS011;7676;50.900;6.234;2022-09-09T21:50:02;2.07;;;1.30;;
15151;SDS011;7676;50.900;6.234;2022-09-09T21:55:05;2.50;;;1.17;;
15151;SDS011;7676;50.900;6.234;2022-09-09T22:00:07;2.03;;;1.20;;
15151;SDS011;7676;50.900;6.234;2022-09-09T22:05:16;2.03;;;1.30;;
15151;SDS011;7676;50.900;6.234;2022-09-09T22:10:21;2.30;;;1.20;;
15151;SDS011;7676;50.900;6.234;2022-09-09T22:15:24;3.53;;;1.80;;
15151;SDS011;7676;50.900;6.234;2022-09-09T22:20:26;2.17;;;1.30;;
15151;SDS011;7676;50.900;6.234;2022-09-09T22:25:31;1.40;;;0.90;;
15151;SDS011;7676;50.900;6.234;2022-09-09T22:30:35;2.97;;;1.10;;
15151;SDS011;7676;50.900;6.234;2022-09-09T22:35:39;1.90;;;1.00;;
15151;SDS011;7676;50.900;6.234;2022-09-09T22:40:43;1.37;;;0.70;;
15151;SDS011;7676;50.900;6.234;2022-09-09T22:45:45;1.33;;;0.77;;
15151;SDS011;7676;50.900;6.234;2022-09-09T22:50:48;1.33;;;0.63;;
15151;SDS011;7676;50.900;6.234;2022-09-09T22:56:00;1.47;;;0.80;;
15151;SDS011;7676;50.900;6.234;2022-09-09T23:01:12;1.20;;;0.80;;
15151;SDS011;7676;50.900;6.234;2022-09-09T23:06:20;2.90;;;0.90;;
15151;SDS011;7676;50.900;6.234;2022-09-09T23:11:31;2.53;;;1.00;;
15151;SDS011;7676;50.900;6.234;2022-09-09T23:16:40;1.80;;;1.10;;
15151;SDS011;7676;50.900;6.234;2022-09-09T23:21:45;1.43;;;0.90;;
15151;SDS011;7676;50.900;6.234;2022-09-09T23:26:48;1.73;;;0.97;;
15151;SDS011;7676;50.900;6.234;2022-09-09T23:31:51;3.60;;;1.17;;
15151;SDS011;7676;50.900;6.234;2022-09-09T23:36:53;1.67;;;0.90;;
15151;SDS011;7676;50.900;6.234;2022-09-09T23:41:55;1.90;;;0.70;;
15151;SDS011;7676;50.900;6.234;2022-09-09T23:46:57;2.53;;;0.97;;
15151;SDS011;7676;50.900;6.234;2022-09-09T23:52:00;3.53;;;1.23;;
15151;SDS011;7676;50.900;6.234;2022-09-09T23:57:05;1.30;;;0.87;;
